X  Schlie├čen METAR Luftfahrt Wetterdaten     LOWW Vienna International Airport
Temperatur
21°C Temperatur
10°C Taupunkt
50% Feuchtigkeit



Wind
11 M/S
24 MPS
39 km/h
21 KTS



290°
WNW
Aktuelle Wetterlage

Klar Klar
Luftdruck 1018.92 (hPa) - 30.09 (inHg)
Sichtweite 6.2 (Meile) - 10 (Km)
Flughafen
Flughafen Code LOWW

Position : Vienna International Airport
Entfernung: 58 (Km)

Metar:
LOWW 071520Z 29021KT CAVOK 21/10 Q1019 NOSIG

Zeit: 07-07-2022 17:20 CEST